Time;durP1;ratioP1;P1;durP2;ratioP2;P2;SDS_P1;SDS_P2;PMS_P1;PMS_P2;Temp;Humidity;BMP_temperature;BMP_pressure;BME280_temperature;BME280_humidity;BME280_pressure;Samples;Min_cycle;Max_cycle;Signal;HPM_P1;HPM_P2
2021/06/01 00:01:58;;;;;;;0.38;0.28;;;20.60;43.20;;;;;;5094558;28;20046;-68
2021/06/01 00:04:25;;;;;;;0.30;0.30;;;20.60;43.20;;;;;;5113165;28;20073;-68
2021/06/01 00:06:51;;;;;;;0.25;0.25;;;20.60;43.30;;;;;;5113125;28;20051;-68
2021/06/01 00:09:21;;;;;;;0.17;0.10;;;20.60;43.20;;;;;;5113162;28;20156;-68
2021/06/01 00:11:48;;;;;;;0.20;0.20;;;20.50;43.20;;;;;;5112570;28;20100;-67
2021/06/01 00:14:15;;;;;;;0.30;0.30;;;20.50;43.30;;;;;;5111053;28;20113;-67
2021/06/01 00:16:42;;;;;;;0.30;0.30;;;20.50;43.40;;;;;;5112698;28;20056;-68
2021/06/01 00:19:09;;;;;;;0.20;0.20;;;20.50;43.40;;;;;;5093261;28;20035;-67
2021/06/01 00:21:37;;;;;;;0.30;0.30;;;20.50;43.40;;;;;;5110062;28;20615;-67
2021/06/01 00:24:04;;;;;;;0.52;0.28;;;20.50;44.30;;;;;;5112849;28;20173;-67
2021/06/01 00:26:32;;;;;;;0.22;0.20;;;20.50;43.30;;;;;;5112629;28;20089;-67
2021/06/01 00:28:58;;;;;;;0.47;0.20;;;20.50;43.50;;;;;;5113061;28;20380;-67
2021/06/01 00:31:25;;;;;;;0.32;0.30;;;20.50;43.50;;;;;;5112634;28;20574;-67
2021/06/01 00:33:51;;;;;;;0.20;0.20;;;20.50;43.40;;;;;;5112515;28;20123;-67
2021/06/01 00:36:17;;;;;;;0.70;0.30;;;20.50;43.40;;;;;;5112459;28;20126;-67
2021/06/01 00:38:44;;;;;;;0.65;0.30;;;20.40;43.30;;;;;;5112079;28;20131;-67
2021/06/01 00:41:10;;;;;;;0.57;0.28;;;20.40;43.50;;;;;;5113008;28;20055;-67
2021/06/01 00:43:36;;;;;;;0.20;0.20;;;20.40;43.40;;;;;;5112540;28;20131;-67
2021/06/01 00:46:03;;;;;;;0.20;0.20;;;20.40;43.50;;;;;;5112457;28;20043;-67
2021/06/01 00:48:29;;;;;;;0.30;0.20;;;20.30;43.30;;;;;;5112570;28;20387;-67
2021/06/01 00:50:56;;;;;;;0.30;0.30;;;20.30;43.30;;;;;;5112207;28;20095;-67
2021/06/01 00:53:22;;;;;;;0.80;0.40;;;20.20;43.30;;;;;;5112742;28;20203;-67
2021/06/01 00:55:49;;;;;;;0.38;0.30;;;20.20;43.50;;;;;;5118528;28;20089;-67
2021/06/01 00:58:15;;;;;;;0.17;0.17;;;20.10;43.50;;;;;;5112595;28;20078;-67
2021/06/01 01:01:14;;;;;;;1.38;0.30;;;20.00;43.80;;;;;;5111992;28;20044;-67
2021/06/01 01:03:41;;;;;;;0.10;0.10;;;19.90;43.80;;;;;;5112219;28;20491;-67
2021/06/01 01:06:36;;;;;;;0.47;0.20;;;19.90;44.00;;;;;;5112356;28;20490;-67
2021/06/01 01:09:10;;;;;;;0.43;0.20;;;19.90;44.00;;;;;;5113871;28;20411;-67
2021/06/01 01:11:48;;;;;;;0.82;0.30;;;19.90;44.00;;;;;;5116421;28;20075;-67
2021/06/01 01:14:27;;;;;;;0.57;0.32;;;19.90;44.00;;;;;;5116288;28;20058;-67
2021/06/01 01:16:59;;;;;;;0.13;0.13;;;19.90;44.10;;;;;;5116459;28;20407;-67
2021/06/01 01:19:59;;;;;;;0.40;0.20;;;19.90;44.20;;;;;;5116331;28;20126;-67
2021/06/01 01:22:26;;;;;;;0.43;0.28;;;19.90;44.30;;;;;;5116187;28;20063;-67
2021/06/01 01:25:16;;;;;;;0.30;0.22;;;19.90;44.30;;;;;;5115744;28;20131;-67
2021/06/01 01:28:07;;;;;;;0.15;0.15;;;19.90;44.40;;;;;;5116178;28;20055;-67
2021/06/01 01:30:43;;;;;;;0.35;0.20;;;19.80;44.60;;;;;;5104990;28;20167;-67
2021/06/01 01:33:27;;;;;;;0.68;0.30;;;19.90;44.60;;;;;;5116257;28;20052;-67
2021/06/01 01:35:57;;;;;;;0.25;0.20;;;19.90;44.60;;;;;;5116099;28;20180;-67
2021/06/01 01:38:25;;;;;;;0.65;0.28;;;19.90;44.50;;;;;;5115719;28;20051;-67
2021/06/01 01:40:54;;;;;;;0.15;0.15;;;19.90;44.50;;;;;;5115504;28;20502;-67
2021/06/01 01:43:24;;;;;;;0.20;0.20;;;19.90;45.70;;;;;;5115646;28;20127;-67
2021/06/01 01:46:00;;;;;;;0.20;0.20;;;19.90;44.60;;;;;;5116098;28;20131;-67
2021/06/01 01:51:16;;;;;;;0.10;0.10;;;19.90;44.70;;;;;;5106777;28;20049;-67
2021/06/01 01:53:54;;;;;;;0.30;0.30;;;19.90;44.70;;;;;;5115895;28;20160;-67
2021/06/01 01:56:22;;;;;;;0.30;0.20;;;19.90;44.80;;;;;;5115842;28;20181;-67
2021/06/01 01:58:50;;;;;;;0.20;0.20;;;19.90;44.80;;;;;;5114840;28;20040;-67
2021/06/01 02:01:18;;;;;;;0.30;0.20;;;19.90;44.70;;;;;;5115780;28;20122;-68
2021/06/01 02:03:45;;;;;;;0.30;0.20;;;19.90;44.70;;;;;;5115633;28;20136;-67
2021/06/01 02:06:12;;;;;;;0.28;0.17;;;19.90;44.80;;;;;;5115560;28;20122;-67
2021/06/01 02:08:43;;;;;;;0.17;0.17;;;19.90;44.80;;;;;;5114991;28;20091;-67
2021/06/01 02:11:10;;;;;;;0.10;0.10;;;19.80;44.80;;;;;;5115052;28;20470;-67
2021/06/01 02:13:51;;;;;;;0.52;0.20;;;19.80;44.90;;;;;;5115318;28;20051;-67
2021/06/01 02:16:18;;;;;;;0.00;0.00;;;19.80;44.90;;;;;;5115404;28;20134;-67
2021/06/01 02:18:45;;;;;;;0.13;0.13;;;19.80;45.00;;;;;;5115076;28;20044;-67
2021/06/01 02:21:34;;;;;;;0.60;0.20;;;19.80;45.00;;;;;;5114837;28;20172;-67
2021/06/01 02:24:07;;;;;;;0.20;0.20;;;19.80;45.00;;;;;;5115058;28;20119;-67
2021/06/01 02:26:42;;;;;;;0.15;0.13;;;19.70;45.10;;;;;;5114775;28;20043;-68
2021/06/01 02:29:17;;;;;;;0.45;0.13;;;19.80;45.10;;;;;;5104477;28;20506;-68
2021/06/01 02:31:46;;;;;;;0.25;0.25;;;19.70;45.20;;;;;;5115073;28;20087;-68
2021/06/01 02:34:14;;;;;;;0.20;0.17;;;19.70;45.10;;;;;;5114906;28;20399;-68
2021/06/01 02:36:42;;;;;;;0.10;0.10;;;19.70;45.30;;;;;;5114739;28;20120;-68
2021/06/01 02:39:10;;;;;;;0.10;0.10;;;19.70;45.30;;;;;;5106896;28;20552;-68
2021/06/01 02:41:36;;;;;;;0.50;0.30;;;19.70;45.40;;;;;;5113156;28;20052;-68
2021/06/01 02:44:04;;;;;;;0.50;0.20;;;19.60;45.30;;;;;;5114347;28;20543;-68
2021/06/01 02:46:31;;;;;;;0.40;0.10;;;19.60;45.30;;;;;;5114775;28;20192;-68
2021/06/01 02:48:57;;;;;;;0.20;0.20;;;19.60;45.40;;;;;;5113814;28;20140;-68
2021/06/01 02:51:24;;;;;;;0.35;0.25;;;19.60;45.50;;;;;;5114733;28;20474;-68
2021/06/01 02:53:53;;;;;;;0.10;0.10;;;19.60;45.50;;;;;;5114718;28;20475;-68
2021/06/01 02:56:20;;;;;;;0.20;0.20;;;19.60;45.70;;;;;;5114506;28;20444;-68
2021/06/01 02:58:49;;;;;;;0.20;0.20;;;19.50;45.70;;;;;;5114320;28;20103;-68
2021/06/01 03:01:18;;;;;;;0.35;0.10;;;19.50;45.60;;;;;;5114566;28;20146;-68
2021/06/01 03:03:50;;;;;;;0.38;0.22;;;19.50;45.70;;;;;;5114384;28;20040;-68
2021/06/01 03:06:18;;;;;;;0.22;0.17;;;19.50;45.80;;;;;;5114613;28;20131;-68
2021/06/01 03:08:44;;;;;;;0.30;0.30;;;19.40;45.80;;;;;;5113758;28;20055;-68
2021/06/01 03:11:14;;;;;;;0.85;0.40;;;19.40;45.80;;;;;;5114145;28;20055;-68
2021/06/01 03:13:40;;;;;;;1.00;0.50;;;19.40;45.80;;;;;;5114368;28;20497;-67
2021/06/01 03:16:06;;;;;;;0.35;0.30;;;19.30;45.90;;;;;;5114366;28;20043;-67
2021/06/01 03:18:34;;;;;;;0.10;0.10;;;19.30;46.00;;;;;;5114050;28;20047;-67
2021/06/01 03:21:00;;;;;;;0.30;0.15;;;19.30;46.10;;;;;;5113640;28;20122;-67
2021/06/01 03:23:26;;;;;;;0.30;0.30;;;19.20;46.10;;;;;;5113470;28;20608;-67
2021/06/01 03:25:53;;;;;;;0.10;0.10;;;19.20;46.30;;;;;;5114233;28;20044;-67
2021/06/01 03:28:20;;;;;;;0.20;0.20;;;19.20;46.30;;;;;;5113938;28;20039;-67
2021/06/01 03:30:48;;;;;;;0.85;0.28;;;19.20;46.40;;;;;;5113181;28;20853;-67
2021/06/01 03:33:15;;;;;;;0.22;0.22;;;19.20;46.50;;;;;;5113605;28;20067;-68
2021/06/01 03:35:42;;;;;;;0.25;0.25;;;19.20;46.60;;;;;;5114078;28;20047;-67
2021/06/01 03:38:09;;;;;;;0.20;0.20;;;19.10;46.60;;;;;;5113095;28;20169;-67
2021/06/01 03:40:36;;;;;;;0.05;0.00;;;19.10;46.70;;;;;;5114999;27;20128;-67
2021/06/01 03:43:03;;;;;;;0.15;0.10;;;19.00;46.80;;;;;;5120191;27;20130;-67
2021/06/01 03:45:30;;;;;;;0.15;0.10;;;19.00;46.80;;;;;;5113504;28;20054;-67
2021/06/01 03:47:57;;;;;;;0.40;0.22;;;19.00;46.90;;;;;;5114005;28;20043;-67
2021/06/01 03:50:23;;;;;;;0.28;0.20;;;18.90;47.00;;;;;;5113594;28;20063;-67
2021/06/01 03:52:50;;;;;;;0.30;0.20;;;18.90;47.10;;;;;;5113380;28;20049;-67
2021/06/01 03:55:17;;;;;;;0.32;0.30;;;18.90;47.10;;;;;;5112845;28;20051;-67
2021/06/01 03:57:45;;;;;;;0.40;0.30;;;18.90;47.10;;;;;;5113343;28;20073;-67
2021/06/01 04:00:15;;;;;;;0.20;0.20;;;19.00;47.20;;;;;;5113113;28;20126;-67
2021/06/01 04:02:42;;;;;;;0.20;0.20;;;19.00;47.20;;;;;;5113436;28;20224;-67
2021/06/01 04:05:09;;;;;;;0.17;0.17;;;19.00;47.20;;;;;;5114043;27;20101;-67
2021/06/01 04:07:36;;;;;;;0.03;0.00;;;19.00;47.30;;;;;;5120566;27;20122;-67
2021/06/01 04:10:04;;;;;;;1.20;0.25;;;19.00;47.40;;;;;;5114554;27;20563;-67
2021/06/01 04:12:31;;;;;;;0.20;0.20;;;19.00;47.50;;;;;;5133745;27;20122;-67
2021/06/01 04:14:57;;;;;;;0.25;0.25;;;19.00;47.30;;;;;;5133364;27;20058;-67
2021/06/01 04:17:23;;;;;;;0.38;0.20;;;19.00;47.30;;;;;;5132997;27;20528;-67
2021/06/01 04:19:50;;;;;;;0.38;0.22;;;18.90;47.20;;;;;;5133316;27;20051;-67
2021/06/01 04:22:16;;;;;;;0.25;0.20;;;18.90;47.20;;;;;;5128496;27;20051;-67
2021/06/01 04:24:42;;;;;;;0.10;0.10;;;19.00;47.20;;;;;;5112925;28;20546;-67
2021/06/01 04:27:09;;;;;;;0.30;0.30;;;19.00;47.30;;;;;;5112797;28;20070;-67
2021/06/01 04:29:35;;;;;;;0.70;0.20;;;19.00;47.10;;;;;;5112303;28;20430;-67
2021/06/01 04:32:02;;;;;;;0.25;0.13;;;18.90;47.10;;;;;;5112898;28;20051;-67
2021/06/01 04:34:28;;;;;;;0.32;0.25;;;18.90;47.00;;;;;;5113002;28;20628;-67
2021/06/01 04:36:54;;;;;;;0.75;0.30;;;18.90;47.00;;;;;;5112256;28;20075;-67
2021/06/01 04:39:21;;;;;;;0.30;0.20;;;18.90;47.00;;;;;;5112520;28;20126;-67
2021/06/01 04:41:47;;;;;;;0.10;0.10;;;18.90;46.90;;;;;;5112787;28;20144;-67
2021/06/01 04:44:14;;;;;;;0.30;0.30;;;18.90;46.90;;;;;;5112090;28;20417;-67
2021/06/01 04:46:40;;;;;;;0.30;0.20;;;18.90;46.90;;;;;;5112006;28;20406;-67
2021/06/01 04:49:06;;;;;;;0.30;0.20;;;18.90;46.80;;;;;;5112594;28;20082;-67
2021/06/01 04:51:33;;;;;;;0.40;0.30;;;18.90;47.00;;;;;;5112330;28;20047;-67
2021/06/01 04:54:00;;;;;;;0.63;0.40;;;18.80;46.80;;;;;;5111906;28;20043;-67
2021/06/01 04:56:28;;;;;;;0.43;0.30;;;18.80;46.80;;;;;;5112707;28;20189;-67
2021/06/01 04:58:55;;;;;;;0.20;0.20;;;18.70;46.90;;;;;;5093805;28;20126;-67
2021/06/01 05:01:23;;;;;;;0.38;0.30;;;18.70;46.90;;;;;;5122683;28;20054;-67
2021/06/01 05:03:50;;;;;;;0.50;0.20;;;18.80;47.00;;;;;;5118041;28;20051;-67
2021/06/01 05:06:17;;;;;;;0.30;0.20;;;18.80;47.00;;;;;;5112169;28;20052;-67
2021/06/01 05:08:44;;;;;;;0.30;0.30;;;18.80;46.80;;;;;;5111836;28;20066;-67
2021/06/01 05:11:10;;;;;;;0.60;0.30;;;18.70;46.70;;;;;;5099696;28;20051;-67
2021/06/01 05:13:37;;;;;;;0.40;0.20;;;18.70;46.80;;;;;;5117315;28;20044;-67
2021/06/01 05:16:04;;;;;;;0.77;0.30;;;18.80;47.00;;;;;;5112421;28;20044;-67
2021/06/01 05:18:31;;;;;;;0.85;0.40;;;18.80;46.90;;;;;;5105507;28;20043;-67
2021/06/01 05:20:57;;;;;;;0.20;0.20;;;18.80;46.90;;;;;;5107651;28;20059;-67
2021/06/01 05:23:23;;;;;;;0.43;0.40;;;18.80;46.80;;;;;;5111905;28;20071;-67
2021/06/01 05:25:50;;;;;;;0.30;0.20;;;18.90;46.90;;;;;;5093348;28;20043;-67
2021/06/01 05:28:16;;;;;;;0.75;0.38;;;18.90;47.00;;;;;;5112305;28;20105;-67
2021/06/01 05:33:31;;;;;;;0.30;0.30;;;18.90;46.90;;;;;;5110447;28;20130;-71
2021/06/01 05:35:57;;;;;;;0.10;0.10;;;18.90;47.10;;;;;;5104778;28;20122;-68
2021/06/01 05:38:25;;;;;;;0.60;0.30;;;18.80;47.00;;;;;;5093439;28;20441;-69
2021/06/01 05:40:53;;;;;;;1.38;0.30;;;18.80;47.10;;;;;;5091847;28;20165;-68
2021/06/01 05:43:20;;;;;;;1.15;0.30;;;18.90;47.10;;;;;;5091949;28;20051;-68
2021/06/01 05:45:47;;;;;;;0.63;0.30;;;19.00;47.10;;;;;;5091304;28;20063;-68
2021/06/01 05:48:13;;;;;;;0.20;0.20;;;19.00;47.00;;;;;;5097460;28;20388;-67
2021/06/01 05:50:41;;;;;;;0.40;0.30;;;19.10;46.90;;;;;;5095808;28;20122;-68
2021/06/01 05:53:09;;;;;;;0.20;0.20;;;19.10;46.90;;;;;;5092228;28;20508;-68
2021/06/01 05:55:37;;;;;;;0.40;0.30;;;19.10;46.70;;;;;;5095918;28;20085;-68
2021/06/01 05:58:04;;;;;;;0.30;0.30;;;19.20;46.90;;;;;;5095836;28;20137;-68
2021/06/01 06:00:32;;;;;;;0.35;0.28;;;19.20;46.80;;;;;;5098114;28;20043;-68
2021/06/01 06:03:00;;;;;;;0.35;0.20;;;19.30;46.80;;;;;;5113070;28;20116;-68
2021/06/01 06:05:27;;;;;;;0.43;0.17;;;19.30;46.80;;;;;;5114060;28;20123;-68
2021/06/01 06:07:53;;;;;;;1.08;0.35;;;19.30;46.80;;;;;;5112356;28;20047;-68
2021/06/01 06:10:20;;;;;;;0.85;0.40;;;19.30;46.90;;;;;;5114205;28;20399;-68
2021/06/01 06:12:46;;;;;;;1.08;0.25;;;19.30;46.70;;;;;;5114763;28;20083;-69
2021/06/01 06:15:17;;;;;;;0.55;0.30;;;19.30;46.80;;;;;;5114577;28;20075;-68
2021/06/01 06:17:56;;;;;;;0.57;0.47;;;19.30;46.80;;;;;;5100811;28;20184;-68
2021/06/01 06:20:23;;;;;;;0.52;0.30;;;19.30;47.00;;;;;;5093102;28;20067;-69
2021/06/01 06:22:49;;;;;;;0.85;0.45;;;19.30;47.00;;;;;;5112276;28;20697;-69
2021/06/01 06:25:16;;;;;;;0.55;0.30;;;19.30;47.10;;;;;;5114854;28;20044;-69
2021/06/01 06:27:42;;;;;;;0.65;0.30;;;19.30;47.00;;;;;;5113384;28;20441;-64
2021/06/01 06:30:11;;;;;;;0.38;0.30;;;19.20;46.70;;;;;;5110909;28;20052;-64
2021/06/01 06:32:37;;;;;;;3.08;0.50;;;19.20;46.90;;;;;;5113821;28;20044;-65
2021/06/01 06:35:05;;;;;;;1.13;0.30;;;19.20;47.10;;;;;;5113450;28;20047;-65
2021/06/01 06:37:32;;;;;;;1.10;0.50;;;19.20;47.10;;;;;;5107708;28;20676;-65
2021/06/01 06:39:59;;;;;;;0.20;0.20;;;19.10;47.20;;;;;;5112734;28;20542;-64
2021/06/01 06:42:25;;;;;;;0.40;0.20;;;19.20;47.10;;;;;;5113809;28;20525;-65
2021/06/01 06:44:53;;;;;;;0.45;0.30;;;19.20;47.00;;;;;;5114246;28;20039;-65
2021/06/01 06:47:27;;;;;;;0.20;0.20;;;19.30;47.00;;;;;;5114184;28;20051;-65
2021/06/01 06:49:55;;;;;;;0.30;0.30;;;19.40;47.00;;;;;;5114210;28;20047;-64
2021/06/01 06:52:22;;;;;;;0.45;0.30;;;19.40;46.90;;;;;;5114486;28;20043;-64
2021/06/01 06:54:48;;;;;;;0.70;0.30;;;19.50;46.90;;;;;;5113523;28;20052;-64
2021/06/01 06:57:15;;;;;;;0.85;0.50;;;19.60;46.60;;;;;;5113695;28;20518;-68
2021/06/01 06:59:41;;;;;;;0.60;0.40;;;19.60;46.40;;;;;;5113825;28;20608;-72
2021/06/01 07:02:08;;;;;;;0.20;0.20;;;19.70;46.40;;;;;;5113681;28;20510;-71
2021/06/01 07:04:34;;;;;;;0.57;0.22;;;19.70;46.20;;;;;;5104174;28;20040;-70
2021/06/01 07:07:00;;;;;;;0.85;0.35;;;19.80;46.10;;;;;;5107726;28;20960;-71
2021/06/01 07:09:27;;;;;;;0.30;0.30;;;19.90;46.00;;;;;;5113630;28;20134;-70
2021/06/01 07:11:54;;;;;;;0.63;0.40;;;20.00;46.10;;;;;;5113179;28;20083;-70
2021/06/01 07:14:20;;;;;;;1.33;0.38;;;20.10;45.90;;;;;;5106494;28;20402;-70
2021/06/01 07:16:47;;;;;;;0.35;0.28;;;20.10;45.60;;;;;;5112675;28;20408;-70
2021/06/01 07:19:14;;;;;;;0.22;0.22;;;20.20;45.70;;;;;;5113593;28;20044;-70
2021/06/01 07:21:40;;;;;;;0.55;0.40;;;20.30;45.60;;;;;;5112768;28;20051;-70
2021/06/01 07:24:07;;;;;;;0.93;0.30;;;20.40;46.30;;;;;;5112821;28;20115;-70
2021/06/01 07:26:33;;;;;;;0.10;0.10;;;20.50;45.20;;;;;;5112165;28;20039;-72
2021/06/01 07:29:00;;;;;;;0.93;0.35;;;20.60;45.30;;;;;;5113037;28;20051;-70
2021/06/01 07:31:26;;;;;;;0.63;0.22;;;20.70;45.10;;;;;;5111484;28;20073;-68
2021/06/01 07:33:52;;;;;;;0.40;0.30;;;20.80;45.10;;;;;;5113054;28;20208;-68
2021/06/01 07:36:19;;;;;;;0.70;0.10;;;20.90;45.00;;;;;;5112750;28;20047;-67
2021/06/01 07:38:45;;;;;;;0.45;0.25;;;21.00;45.10;;;;;;5112938;28;20043;-68
2021/06/01 07:41:12;;;;;;;0.40;0.30;;;21.10;44.80;;;;;;5113236;28;20040;-67
2021/06/01 07:43:38;;;;;;;0.55;0.30;;;21.30;44.70;;;;;;5112838;28;20054;-70
2021/06/01 07:46:05;;;;;;;0.20;0.20;;;21.50;44.90;;;;;;5113394;28;20139;-70
2021/06/01 07:48:36;;;;;;;0.50;0.30;;;21.60;44.90;;;;;;5113444;28;20177;-70
2021/06/01 07:51:03;;;;;;;0.30;0.20;;;21.80;44.40;;;;;;5094311;28;20039;-71
2021/06/01 07:53:32;;;;;;;0.40;0.30;;;21.90;44.20;;;;;;5112942;28;20067;-71
2021/06/01 07:55:58;;;;;;;0.55;0.20;;;22.00;44.10;;;;;;5108559;28;20510;-70
2021/06/01 07:58:24;;;;;;;0.20;0.20;;;22.20;44.10;;;;;;5113185;28;20081;-71
2021/06/01 08:00:50;;;;;;;0.95;0.30;;;22.30;43.80;;;;;;5112477;28;20036;-71
2021/06/01 08:03:17;;;;;;;0.60;0.30;;;22.40;43.20;;;;;;5113032;28;20083;-71
2021/06/01 08:05:44;;;;;;;0.25;0.25;;;22.50;42.50;;;;;;5112512;28;20119;-71
2021/06/01 08:08:10;;;;;;;0.88;0.40;;;22.60;42.30;;;;;;5110290;28;20052;-71
2021/06/01 08:10:37;;;;;;;0.60;0.30;;;22.70;42.50;;;;;;5112583;28;20410;-71
2021/06/01 08:13:03;;;;;;;0.70;0.40;;;22.90;42.50;;;;;;5112013;28;20043;-72
2021/06/01 08:15:29;;;;;;;0.30;0.20;;;23.00;41.80;;;;;;5112162;28;20167;-73
2021/06/01 08:18:00;;;;;;;0.30;0.10;;;23.10;41.60;;;;;;5111850;28;20399;-72
2021/06/01 08:20:31;;;;;;;0.43;0.30;;;23.30;41.60;;;;;;5112038;28;20444;-71
2021/06/01 08:22:58;;;;;;;0.30;0.20;;;23.40;41.40;;;;;;5110014;28;20067;-71
2021/06/01 08:25:25;;;;;;;0.82;0.40;;;23.50;41.20;;;;;;5109128;28;20092;-71
2021/06/01 08:27:53;;;;;;;1.23;0.47;;;23.60;39.90;;;;;;5111717;28;20123;-71
2021/06/01 08:30:20;;;;;;;0.40;0.30;;;23.70;39.20;;;;;;5112891;28;20173;-72
2021/06/01 08:32:47;;;;;;;0.30;0.25;;;23.60;38.40;;;;;;5112590;28;20518;-71
2021/06/01 08:35:13;;;;;;;0.63;0.40;;;23.60;38.50;;;;;;5111509;28;20084;-72
2021/06/01 08:37:40;;;;;;;0.60;0.22;;;23.70;39.00;;;;;;5093977;28;20176;-72
2021/06/01 08:40:07;;;;;;;0.70;0.30;;;23.80;39.00;;;;;;5111897;28;20408;-72
2021/06/01 08:42:36;;;;;;;0.10;0.10;;;23.90;38.70;;;;;;5100973;28;20047;-72
2021/06/01 08:45:05;;;;;;;0.35;0.32;;;23.90;38.50;;;;;;5108057;28;20077;-70
2021/06/01 08:47:32;;;;;;;0.60;0.20;;;24.00;38.60;;;;;;5111811;28;20050;-72
2021/06/01 08:50:01;;;;;;;0.52;0.30;;;24.10;37.90;;;;;;5111503;28;20134;-73
2021/06/01 08:52:27;;;;;;;0.50;0.30;;;24.10;38.20;;;;;;5110956;28;20426;-72
2021/06/01 08:54:54;;;;;;;0.40;0.30;;;24.30;37.80;;;;;;5109993;28;20423;-71
2021/06/01 08:57:21;;;;;;;0.65;0.40;;;24.40;37.30;;;;;;5110797;28;20483;-71
2021/06/01 08:59:47;;;;;;;0.75;0.30;;;24.30;37.00;;;;;;5110737;28;20096;-70
2021/06/01 09:02:23;;;;;;;2.38;0.60;;;24.40;37.20;;;;;;5110656;28;20119;-70
2021/06/01 09:05:04;;;;;;;0.77;0.35;;;24.30;37.10;;;;;;5108308;28;20517;-70
2021/06/01 09:21:32;;;;;;;0.60;0.30;;;24.70;38.50;;;;;;5099267;28;20126;-70
2021/06/01 09:24:02;;;;;;;0.63;0.35;;;25.00;38.20;;;;;;5111525;28;20048;-71
2021/06/01 09:26:38;;;;;;;0.40;0.22;;;25.10;36.90;;;;;;5102868;28;20132;-71
2021/06/01 09:29:04;;;;;;;0.55;0.43;;;25.10;35.60;;;;;;5106668;28;20043;-71
2021/06/01 09:31:31;;;;;;;1.25;0.20;;;25.00;34.30;;;;;;5107710;28;20503;-70
2021/06/01 09:33:57;;;;;;;0.30;0.20;;;24.90;35.20;;;;;;5104853;28;20600;-71
2021/06/01 09:36:23;;;;;;;0.47;0.20;;;24.90;35.30;;;;;;5113223;28;20043;-71
2021/06/01 09:38:50;;;;;;;0.38;0.17;;;24.80;35.00;;;;;;5104928;28;20079;-71
2021/06/01 09:41:18;;;;;;;0.30;0.20;;;24.80;35.30;;;;;;5107553;28;20047;-71
2021/06/01 09:43:57;;;;;;;0.15;0.10;;;24.70;36.30;;;;;;5115201;28;20050;-71
2021/06/01 09:46:27;;;;;;;0.40;0.30;;;24.70;36.30;;;;;;5106809;28;20073;-71
2021/06/01 09:49:19;;;;;;;0.43;0.30;;;24.70;36.00;;;;;;5112322;28;20482;-71
2021/06/01 09:51:52;;;;;;;0.40;0.17;;;24.80;36.30;;;;;;5109764;28;20047;-71
2021/06/01 09:54:36;;;;;;;0.63;0.20;;;24.90;36.20;;;;;;5113298;28;20054;-71
2021/06/01 09:57:40;;;;;;;0.30;0.22;;;25.10;36.10;;;;;;5111808;28;20047;-71
2021/06/01 10:00:17;;;;;;;0.57;0.30;;;25.00;35.50;;;;;;5110985;28;20075;-70
2021/06/01 10:02:45;;;;;;;0.52;0.30;;;25.00;35.90;;;;;;5114898;28;20172;-71
2021/06/01 10:05:14;;;;;;;1.30;0.30;;;25.00;36.00;;;;;;5115403;28;20176;-72
2021/06/01 10:07:42;;;;;;;0.40;0.30;;;25.10;36.30;;;;;;5114573;28;20072;-71
2021/06/01 10:10:29;;;;;;;1.23;0.20;;;25.20;35.90;;;;;;5114828;28;20126;-71
2021/06/01 10:13:04;;;;;;;0.52;0.20;;;25.30;35.80;;;;;;5112668;28;20054;-71
2021/06/01 10:15:32;;;;;;;0.38;0.30;;;25.30;35.50;;;;;;5114032;28;20083;-70
2021/06/01 10:17:58;;;;;;;0.43;0.25;;;25.20;36.10;;;;;;5114400;28;20054;-70
2021/06/01 10:20:27;;;;;;;0.35;0.28;;;25.20;36.10;;;;;;5114021;28;20423;-70
2021/06/01 10:22:55;;;;;;;0.47;0.20;;;25.30;35.90;;;;;;5113343;28;20432;-70
2021/06/01 10:25:21;;;;;;;0.80;0.40;;;25.30;36.40;;;;;;5113934;28;20051;-70
2021/06/01 10:27:50;;;;;;;1.33;0.30;;;25.40;36.40;;;;;;5105736;28;20051;-70
2021/06/01 10:30:17;;;;;;;0.98;0.40;;;25.30;36.40;;;;;;5113947;28;20126;-70
2021/06/01 10:32:47;;;;;;;0.20;0.20;;;25.30;36.40;;;;;;5114585;28;20494;-70
2021/06/01 10:35:17;;;;;;;0.85;0.20;;;25.30;36.80;;;;;;5114503;28;20047;-70
2021/06/01 10:51:55;;;;;;;0.30;0.30;;;25.60;37.80;;;;;;5028740;28;20171;-68
2021/06/01 10:54:58;;;;;;;0.55;0.20;;;25.70;37.60;;;;;;5030512;28;20046;-68
2021/06/01 10:58:10;;;;;;;0.32;0.20;;;25.80;36.50;;;;;;5014746;28;20077;-68
2021/06/01 11:03:14;;;;;;;0.85;0.20;;;25.60;36.50;;;;;;5012238;28;20053;-68
2021/06/01 11:05:56;;;;;;;0.55;0.28;;;25.60;36.60;;;;;;5012032;28;20469;-68
2021/06/01 11:08:52;;;;;;;0.50;0.28;;;25.60;36.40;;;;;;5013850;28;20100;-68
2021/06/01 11:11:31;;;;;;;0.20;0.10;;;25.50;36.20;;;;;;5007769;28;20406;-68
2021/06/01 11:14:00;;;;;;;0.45;0.15;;;25.40;37.20;;;;;;5015985;28;20108;-68
2021/06/01 11:16:56;;;;;;;0.20;0.17;;;25.40;36.30;;;;;;5017808;28;20057;-68
2021/06/01 11:19:29;;;;;;;0.35;0.22;;;25.40;36.50;;;;;;5018420;28;20049;-69
2021/06/01 11:22:03;;;;;;;0.55;0.20;;;25.40;36.90;;;;;;5022943;28;20045;-68
2021/06/01 11:35:34;;;;;;;0.20;0.20;;;25.80;36.70;;;;;;5087464;28;20055;-68
2021/06/01 11:43:16;;;;;;;0.17;0.17;;;25.90;35.40;;;;;;5091442;28;20055;-69
2021/06/01 11:46:01;;;;;;;0.10;0.10;;;25.90;35.50;;;;;;5091284;28;20043;-68
2021/06/01 11:51:30;;;;;;;0.20;0.20;;;25.90;35.50;;;;;;5049824;28;20520;-68
2021/06/01 11:54:08;;;;;;;0.10;0.10;;;25.80;35.30;;;;;;5049473;28;20048;-68
2021/06/01 12:04:37;;;;;;;0.10;0.10;;;25.90;36.20;;;;;;5041644;28;20467;-71
2021/06/01 12:12:55;;;;;;;1.10;0.25;;;26.00;36.70;;;;;;5026737;28;20049;-70
2021/06/01 12:20:44;;;;;;;0.22;0.10;;;26.10;36.70;;;;;;5043327;28;20052;-70
2021/06/01 12:23:30;;;;;;;0.10;0.00;;;26.20;36.20;;;;;;5030578;28;20132;-69
2021/06/01 12:32:36;;;;;;;0.13;0.10;;;26.10;35.60;;;;;;5091328;28;20130;-70
2021/06/01 12:43:46;;;;;;;0.50;0.10;;;26.10;37.10;;;;;;5087714;28;20505;-70
2021/06/01 13:47:59;;;;;;;0.28;0.17;;;26.50;36.90;;;;;;5094477;28;20119;-74
2021/06/01 13:56:02;;;;;;;0.00;0.00;;;26.50;36.80;;;;;;5100837;28;20086;-70
2021/06/01 14:36:42;;;;;;;0.20;0.00;;;27.10;37.70;;;;;;5028300;28;20463;-67
2021/06/01 14:39:38;;;;;;;0.10;0.10;;;27.10;38.00;;;;;;5019168;28;20125;-67
2021/06/01 15:50:55;;;;;;;0.10;0.10;;;27.20;38.70;;;;;;4992090;28;20043;-69
2021/06/01 16:21:23;;;;;;;0.10;0.10;;;27.00;38.60;;;;;;5109628;28;20134;-69
2021/06/01 16:23:42;;;;;;;0.00;0.00;;;27.00;38.80;;;;;;5109174;28;20051;-69
2021/06/01 16:31:48;;;;;;;0.22;0.20;;;27.00;38.70;;;;;;5110700;28;20059;-69
2021/06/01 16:43:01;;;;;;;0.17;0.13;;;27.10;39.50;;;;;;5109667;28;20044;-70
2021/06/01 17:04:54;;;;;;;0.73;0.20;;;26.90;38.50;;;;;;5092448;28;20628;-69
2021/06/01 17:13:04;;;;;;;;;;;26.90;39.60;;;;;;5092516;28;20119;-70
2021/06/01 17:15:31;;;;;;;0.08;0.08;;;26.90;39.90;;;;;;5097850;28;19926;-69
2021/06/01 17:18:11;;;;;;;0.10;0.10;;;26.90;39.80;;;;;;5093716;28;20548;-70
2021/06/01 17:36:36;;;;;;;0.10;0.10;;;27.00;40.30;;;;;;5027386;28;20124;-70
2021/06/01 17:39:04;;;;;;;0.25;0.25;;;27.00;39.80;;;;;;5028675;28;20099;-69
2021/06/01 17:41:35;;;;;;;0.63;0.10;;;26.90;39.60;;;;;;5027132;28;20057;-71
2021/06/01 17:44:05;;;;;;;0.20;0.20;;;27.00;39.60;;;;;;5027734;28;20052;-71
2021/06/01 17:46:37;;;;;;;0.20;0.20;;;27.00;39.80;;;;;;5028846;28;20570;-70
2021/06/01 17:49:08;;;;;;;0.40;0.20;;;27.00;40.00;;;;;;5028360;28;20226;-65
2021/06/01 17:51:36;;;;;;;0.47;0.17;;;27.00;40.00;;;;;;5035082;28;20579;-71
2021/06/01 17:54:03;;;;;;;0.93;0.10;;;27.00;40.10;;;;;;5025668;28;20075;-68
2021/06/01 17:56:31;;;;;;;0.25;0.10;;;27.00;40.30;;;;;;5035147;28;20061;-70
2021/06/01 17:58:59;;;;;;;0.20;0.20;;;27.00;40.40;;;;;;5035703;28;20136;-69
2021/06/01 18:01:28;;;;;;;0.10;0.10;;;26.90;40.40;;;;;;5039753;28;20464;-68
2021/06/01 18:06:30;;;;;;;0.95;0.20;;;26.90;40.20;;;;;;5045068;28;20142;-69
2021/06/01 19:25:39;;;;;;;0.13;0.08;;;26.70;40.60;;;;;;4994648;28;20133;-68
2021/06/01 19:28:37;;;;;;;0.10;0.10;;;26.60;40.60;;;;;;4994403;28;20074;-68
2021/06/01 19:43:17;;;;;;;0.03;0.03;;;26.50;40.80;;;;;;5030326;28;20079;-68
2021/06/01 19:50:29;;;;;;;0.10;0.10;;;26.50;41.20;;;;;;5029613;28;20128;-68
2021/06/01 19:52:57;;;;;;;0.20;0.20;;;26.40;41.40;;;;;;5032483;28;20054;-67
2021/06/01 19:55:27;;;;;;;0.43;0.10;;;26.40;41.40;;;;;;5030786;28;20063;-69
2021/06/01 19:57:54;;;;;;;0.10;0.10;;;26.30;41.50;;;;;;5076798;28;20556;-69
2021/06/01 20:00:23;;;;;;;1.02;0.20;;;26.30;41.60;;;;;;5092015;28;20048;-70
2021/06/01 20:02:50;;;;;;;0.17;0.17;;;26.30;41.80;;;;;;5092111;28;20185;-77
2021/06/01 20:05:18;;;;;;;0.05;0.05;;;26.30;41.90;;;;;;5091530;28;20152;-70
2021/06/01 20:07:45;;;;;;;0.00;0.00;;;26.30;42.10;;;;;;5085844;28;20052;-68
2021/06/01 20:10:15;;;;;;;0.08;0.00;;;26.20;42.20;;;;;;5096651;28;20044;-68
2021/06/01 20:12:42;;;;;;;0.20;0.17;;;26.20;42.30;;;;;;5103204;28;20048;-69
2021/06/01 20:15:10;;;;;;;0.20;0.10;;;26.20;42.40;;;;;;5096616;28;20172;-69
2021/06/01 20:17:42;;;;;;;0.20;0.20;;;26.20;42.60;;;;;;5095628;28;20109;-68
2021/06/01 20:20:21;;;;;;;0.10;0.10;;;26.20;42.70;;;;;;5093568;28;20051;-68
2021/06/01 20:22:52;;;;;;;0.55;0.10;;;26.10;42.60;;;;;;5097605;28;20124;-68
2021/06/01 20:25:21;;;;;;;0.10;0.10;;;26.10;42.90;;;;;;5094569;28;20052;-69